sensor_id;sensor_type;location;lat;lon;timestamp;P1;durP1;ratioP1;P2;durP2;ratioP2
39022;SDS011;25908;51.984;5.928;2022-12-20T00:01:53;25.17;;;13.60;;
39022;SDS011;25908;51.984;5.928;2022-12-20T00:04:19;13.38;;;7.10;;
39022;SDS011;25908;51.984;5.928;2022-12-20T00:06:44;11.27;;;6.95;;
39022;SDS011;25908;51.984;5.928;2022-12-20T00:09:10;8.75;;;5.38;;
39022;SDS011;25908;51.984;5.928;2022-12-20T00:11:37;13.73;;;7.57;;
39022;SDS011;25908;51.984;5.928;2022-12-20T00:14:05;11.68;;;6.13;;
39022;SDS011;25908;51.984;5.928;2022-12-20T00:16:31;15.93;;;8.07;;
39022;SDS011;25908;51.984;5.928;2022-12-20T00:18:59;16.08;;;8.70;;
39022;SDS011;25908;51.984;5.928;2022-12-20T00:21:26;22.92;;;13.32;;
39022;SDS011;25908;51.984;5.928;2022-12-20T00:23:53;17.60;;;11.00;;
39022;SDS011;25908;51.984;5.928;2022-12-20T00:26:19;24.50;;;13.50;;
39022;SDS011;25908;51.984;5.928;2022-12-20T00:28:47;18.77;;;10.48;;
39022;SDS011;25908;51.984;5.928;2022-12-20T00:31:13;20.70;;;11.85;;
39022;SDS011;25908;51.984;5.928;2022-12-20T00:33:40;30.50;;;18.08;;
39022;SDS011;25908;51.984;5.928;2022-12-20T00:36:09;30.45;;;17.63;;
39022;SDS011;25908;51.984;5.928;2022-12-20T00:38:35;35.13;;;20.67;;
39022;SDS011;25908;51.984;5.928;2022-12-20T00:41:05;18.38;;;9.57;;
39022;SDS011;25908;51.984;5.928;2022-12-20T00:43:31;9.30;;;4.28;;
39022;SDS011;25908;51.984;5.928;2022-12-20T00:45:57;8.45;;;4.38;;
39022;SDS011;25908;51.984;5.928;2022-12-20T00:48:24;7.25;;;5.00;;
39022;SDS011;25908;51.984;5.928;2022-12-20T00:50:50;7.50;;;4.22;;
39022;SDS011;25908;51.984;5.928;2022-12-20T00:53:16;6.57;;;4.45;;
39022;SDS011;25908;51.984;5.928;2022-12-20T00:55:45;10.43;;;4.60;;
39022;SDS011;25908;51.984;5.928;2022-12-20T00:58:11;7.85;;;4.55;;
39022;SDS011;25908;51.984;5.928;2022-12-20T01:00:38;5.88;;;3.10;;
39022;SDS011;25908;51.984;5.928;2022-12-20T01:03:05;6.40;;;3.25;;
39022;SDS011;25908;51.984;5.928;2022-12-20T01:05:31;6.43;;;2.70;;
39022;SDS011;25908;51.984;5.928;2022-12-20T01:07:57;5.55;;;3.00;;
39022;SDS011;25908;51.984;5.928;2022-12-20T01:10:22;6.00;;;2.40;;
39022;SDS011;25908;51.984;5.928;2022-12-20T01:12:48;4.28;;;2.28;;
39022;SDS011;25908;51.984;5.928;2022-12-20T01:15:14;4.32;;;2.42;;
39022;SDS011;25908;51.984;5.928;2022-12-20T01:17:39;5.10;;;2.20;;
39022;SDS011;25908;51.984;5.928;2022-12-20T01:20:05;4.32;;;2.67;;
39022;SDS011;25908;51.984;5.928;2022-12-20T01:22:31;5.13;;;2.50;;
39022;SDS011;25908;51.984;5.928;2022-12-20T01:24:57;4.50;;;2.22;;
39022;SDS011;25908;51.984;5.928;2022-12-20T01:27:23;3.53;;;1.98;;
39022;SDS011;25908;51.984;5.928;2022-12-20T01:29:48;4.78;;;2.13;;
39022;SDS011;25908;51.984;5.928;2022-12-20T01:32:14;5.55;;;2.20;;
39022;SDS011;25908;51.984;5.928;2022-12-20T01:34:39;3.95;;;2.22;;
39022;SDS011;25908;51.984;5.928;2022-12-20T01:37:05;6.38;;;1.85;;
39022;SDS011;25908;51.984;5.928;2022-12-20T01:39:30;5.07;;;2.30;;
39022;SDS011;25908;51.984;5.928;2022-12-20T01:41:56;4.55;;;2.50;;
39022;SDS011;25908;51.984;5.928;2022-12-20T01:46:47;4.82;;;2.20;;
39022;SDS011;25908;51.984;5.928;2022-12-20T01:51:56;6.97;;;2.55;;
39022;SDS011;25908;51.984;5.928;2022-12-20T01:54:29;5.50;;;2.40;;
39022;SDS011;25908;51.984;5.928;2022-12-20T01:57:00;4.65;;;2.25;;
39022;SDS011;25908;51.984;5.928;2022-12-20T01:59:28;6.43;;;2.47;;
39022;SDS011;25908;51.984;5.928;2022-12-20T02:01:58;4.90;;;2.58;;
39022;SDS011;25908;51.984;5.928;2022-12-20T02:04:26;5.43;;;2.30;;
39022;SDS011;25908;51.984;5.928;2022-12-20T02:06:51;4.95;;;2.72;;
39022;SDS011;25908;51.984;5.928;2022-12-20T02:09:17;4.05;;;2.30;;
39022;SDS011;25908;51.984;5.928;2022-12-20T02:11:59;4.47;;;2.50;;
39022;SDS011;25908;51.984;5.928;2022-12-20T02:15:10;6.75;;;2.70;;
39022;SDS011;25908;51.984;5.928;2022-12-20T02:18:07;5.00;;;2.65;;
39022;SDS011;25908;51.984;5.928;2022-12-20T02:21:04;6.15;;;2.80;;
39022;SDS011;25908;51.984;5.928;2022-12-20T02:34:57;4.38;;;2.30;;
39022;SDS011;25908;51.984;5.928;2022-12-20T02:37:23;7.03;;;3.10;;
39022;SDS011;25908;51.984;5.928;2022-12-20T02:39:48;5.72;;;3.55;;
39022;SDS011;25908;51.984;5.928;2022-12-20T02:42:15;4.55;;;3.05;;
39022;SDS011;25908;51.984;5.928;2022-12-20T02:44:46;5.68;;;3.00;;
39022;SDS011;25908;51.984;5.928;2022-12-20T02:47:38;5.40;;;2.70;;
39022;SDS011;25908;51.984;5.928;2022-12-20T02:50:09;6.50;;;3.22;;
39022;SDS011;25908;51.984;5.928;2022-12-20T02:52:36;6.55;;;2.90;;
39022;SDS011;25908;51.984;5.928;2022-12-20T02:55:04;8.90;;;3.30;;
39022;SDS011;25908;51.984;5.928;2022-12-20T02:57:37;4.50;;;2.67;;
39022;SDS011;25908;51.984;5.928;2022-12-20T03:00:17;4.47;;;2.70;;
39022;SDS011;25908;51.984;5.928;2022-12-20T03:02:45;6.78;;;3.17;;
39022;SDS011;25908;51.984;5.928;2022-12-20T03:05:31;4.95;;;3.03;;
39022;SDS011;25908;51.984;5.928;2022-12-20T03:07:59;5.53;;;2.92;;
39022;SDS011;25908;51.984;5.928;2022-12-20T03:10:25;6.80;;;3.05;;
39022;SDS011;25908;51.984;5.928;2022-12-20T03:12:50;5.75;;;3.10;;
39022;SDS011;25908;51.984;5.928;2022-12-20T03:15:16;5.22;;;2.90;;
39022;SDS011;25908;51.984;5.928;2022-12-20T03:17:42;5.40;;;2.60;;
39022;SDS011;25908;51.984;5.928;2022-12-20T03:20:08;5.55;;;2.90;;
39022;SDS011;25908;51.984;5.928;2022-12-20T03:22:35;6.70;;;4.30;;
39022;SDS011;25908;51.984;5.928;2022-12-20T03:25:01;6.38;;;3.50;;
39022;SDS011;25908;51.984;5.928;2022-12-20T03:27:26;7.05;;;3.10;;
39022;SDS011;25908;51.984;5.928;2022-12-20T03:29:53;7.13;;;3.08;;
39022;SDS011;25908;51.984;5.928;2022-12-20T03:32:19;9.63;;;3.88;;
39022;SDS011;25908;51.984;5.928;2022-12-20T03:34:45;7.03;;;3.15;;
39022;SDS011;25908;51.984;5.928;2022-12-20T03:37:11;11.23;;;3.10;;
39022;SDS011;25908;51.984;5.928;2022-12-20T03:39:36;4.63;;;2.65;;
39022;SDS011;25908;51.984;5.928;2022-12-20T03:42:02;7.70;;;2.63;;
39022;SDS011;25908;51.984;5.928;2022-12-20T03:44:28;5.57;;;3.05;;
39022;SDS011;25908;51.984;5.928;2022-12-20T03:46:53;5.07;;;3.00;;
39022;SDS011;25908;51.984;5.928;2022-12-20T03:49:19;4.72;;;2.75;;
39022;SDS011;25908;51.984;5.928;2022-12-20T03:51:44;5.53;;;2.72;;
39022;SDS011;25908;51.984;5.928;2022-12-20T03:54:10;4.38;;;2.75;;
39022;SDS011;25908;51.984;5.928;2022-12-20T03:56:35;5.63;;;3.30;;
39022;SDS011;25908;51.984;5.928;2022-12-20T03:59:01;5.63;;;2.97;;
39022;SDS011;25908;51.984;5.928;2022-12-20T04:01:27;6.65;;;2.80;;
39022;SDS011;25908;51.984;5.928;2022-12-20T04:03:53;4.60;;;2.58;;
39022;SDS011;25908;51.984;5.928;2022-12-20T04:06:19;5.60;;;3.17;;
39022;SDS011;25908;51.984;5.928;2022-12-20T04:08:46;6.50;;;2.75;;
39022;SDS011;25908;51.984;5.928;2022-12-20T04:11:12;5.05;;;2.80;;
39022;SDS011;25908;51.984;5.928;2022-12-20T04:13:50;5.65;;;3.10;;
39022;SDS011;25908;51.984;5.928;2022-12-20T04:16:18;5.95;;;3.33;;
39022;SDS011;25908;51.984;5.928;2022-12-20T04:18:45;5.75;;;2.92;;
39022;SDS011;25908;51.984;5.928;2022-12-20T04:21:11;5.30;;;2.78;;
39022;SDS011;25908;51.984;5.928;2022-12-20T04:23:38;6.35;;;3.03;;
39022;SDS011;25908;51.984;5.928;2022-12-20T04:26:05;6.85;;;3.20;;
39022;SDS011;25908;51.984;5.928;2022-12-20T04:28:32;4.43;;;2.72;;
39022;SDS011;25908;51.984;5.928;2022-12-20T04:30:58;5.70;;;3.30;;
39022;SDS011;25908;51.984;5.928;2022-12-20T04:33:24;5.35;;;3.17;;
39022;SDS011;25908;51.984;5.928;2022-12-20T04:35:50;11.25;;;3.25;;
39022;SDS011;25908;51.984;5.928;2022-12-20T04:38:16;7.03;;;2.80;;
39022;SDS011;25908;51.984;5.928;2022-12-20T04:40:42;5.75;;;2.70;;
39022;SDS011;25908;51.984;5.928;2022-12-20T04:43:08;4.55;;;2.90;;
39022;SDS011;25908;51.984;5.928;2022-12-20T04:45:34;5.20;;;2.92;;
39022;SDS011;25908;51.984;5.928;2022-12-20T04:48:00;6.95;;;3.38;;
39022;SDS011;25908;51.984;5.928;2022-12-20T04:50:25;4.43;;;2.60;;
39022;SDS011;25908;51.984;5.928;2022-12-20T04:52:51;5.38;;;2.72;;
39022;SDS011;25908;51.984;5.928;2022-12-20T04:55:39;6.07;;;3.08;;
39022;SDS011;25908;51.984;5.928;2022-12-20T04:58:05;4.25;;;2.58;;
39022;SDS011;25908;51.984;5.928;2022-12-20T05:00:32;4.55;;;2.78;;
39022;SDS011;25908;51.984;5.928;2022-12-20T05:02:58;8.63;;;2.92;;
39022;SDS011;25908;51.984;5.928;2022-12-20T05:05:24;4.82;;;2.30;;
39022;SDS011;25908;51.984;5.928;2022-12-20T05:07:50;6.53;;;2.50;;
39022;SDS011;25908;51.984;5.928;2022-12-20T05:10:16;7.28;;;2.50;;
39022;SDS011;25908;51.984;5.928;2022-12-20T05:12:42;6.60;;;2.65;;
39022;SDS011;25908;51.984;5.928;2022-12-20T05:15:08;6.72;;;2.88;;
39022;SDS011;25908;51.984;5.928;2022-12-20T05:17:35;5.65;;;2.72;;
39022;SDS011;25908;51.984;5.928;2022-12-20T05:20:01;6.05;;;2.53;;
39022;SDS011;25908;51.984;5.928;2022-12-20T05:22:27;4.40;;;2.33;;
39022;SDS011;25908;51.984;5.928;2022-12-20T05:25:11;4.57;;;2.60;;
39022;SDS011;25908;51.984;5.928;2022-12-20T05:27:55;4.60;;;2.67;;
39022;SDS011;25908;51.984;5.928;2022-12-20T05:30:21;4.55;;;2.58;;
39022;SDS011;25908;51.984;5.928;2022-12-20T05:32:47;8.10;;;2.83;;
39022;SDS011;25908;51.984;5.928;2022-12-20T05:35:13;5.25;;;2.95;;
39022;SDS011;25908;51.984;5.928;2022-12-20T05:37:38;7.90;;;2.90;;
39022;SDS011;25908;51.984;5.928;2022-12-20T05:40:04;7.95;;;3.00;;
39022;SDS011;25908;51.984;5.928;2022-12-20T05:42:31;5.25;;;2.97;;
39022;SDS011;25908;51.984;5.928;2022-12-20T05:44:57;6.57;;;2.90;;
39022;SDS011;25908;51.984;5.928;2022-12-20T05:47:22;6.75;;;2.67;;
39022;SDS011;25908;51.984;5.928;2022-12-20T05:49:48;5.13;;;2.90;;
39022;SDS011;25908;51.984;5.928;2022-12-20T05:52:14;4.65;;;2.78;;
39022;SDS011;25908;51.984;5.928;2022-12-20T05:54:40;7.53;;;3.30;;
39022;SDS011;25908;51.984;5.928;2022-12-20T05:57:05;5.32;;;3.15;;
39022;SDS011;25908;51.984;5.928;2022-12-20T05:59:31;5.90;;;2.85;;
39022;SDS011;25908;51.984;5.928;2022-12-20T06:01:56;5.97;;;3.05;;
39022;SDS011;25908;51.984;5.928;2022-12-20T06:04:22;4.32;;;2.65;;
39022;SDS011;25908;51.984;5.928;2022-12-20T06:06:48;4.80;;;2.90;;
39022;SDS011;25908;51.984;5.928;2022-12-20T06:09:13;7.10;;;3.08;;
39022;SDS011;25908;51.984;5.928;2022-12-20T06:11:39;5.88;;;3.05;;
39022;SDS011;25908;51.984;5.928;2022-12-20T06:14:04;6.13;;;2.88;;
39022;SDS011;25908;51.984;5.928;2022-12-20T06:16:30;4.28;;;2.60;;
39022;SDS011;25908;51.984;5.928;2022-12-20T06:18:56;4.43;;;2.60;;
39022;SDS011;25908;51.984;5.928;2022-12-20T06:21:21;6.55;;;3.03;;
39022;SDS011;25908;51.984;5.928;2022-12-20T06:23:47;6.38;;;2.85;;
39022;SDS011;25908;51.984;5.928;2022-12-20T06:26:13;6.63;;;4.07;;
39022;SDS011;25908;51.984;5.928;2022-12-20T06:28:38;8.50;;;4.40;;
39022;SDS011;25908;51.984;5.928;2022-12-20T06:31:07;8.10;;;5.10;;
39022;SDS011;25908;51.984;5.928;2022-12-20T06:33:34;9.95;;;4.13;;
39022;SDS011;25908;51.984;5.928;2022-12-20T06:36:00;6.88;;;4.13;;
39022;SDS011;25908;51.984;5.928;2022-12-20T06:38:26;12.57;;;6.57;;
39022;SDS011;25908;51.984;5.928;2022-12-20T06:40:52;8.38;;;5.97;;
39022;SDS011;25908;51.984;5.928;2022-12-20T06:43:18;5.15;;;3.45;;
39022;SDS011;25908;51.984;5.928;2022-12-20T06:45:44;6.65;;;3.35;;
39022;SDS011;25908;51.984;5.928;2022-12-20T06:48:10;5.10;;;2.67;;
39022;SDS011;25908;51.984;5.928;2022-12-20T06:50:39;4.40;;;2.60;;
39022;SDS011;25908;51.984;5.928;2022-12-20T06:53:04;6.15;;;2.70;;
39022;SDS011;25908;51.984;5.928;2022-12-20T06:55:30;5.20;;;2.83;;
39022;SDS011;25908;51.984;5.928;2022-12-20T06:57:56;4.85;;;2.75;;
39022;SDS011;25908;51.984;5.928;2022-12-20T07:00:22;5.40;;;2.80;;
39022;SDS011;25908;51.984;5.928;2022-12-20T07:02:48;7.88;;;2.50;;
39022;SDS011;25908;51.984;5.928;2022-12-20T07:05:13;4.63;;;2.75;;
39022;SDS011;25908;51.984;5.928;2022-12-20T07:07:39;4.10;;;2.47;;
39022;SDS011;25908;51.984;5.928;2022-12-20T07:10:05;5.40;;;2.75;;
39022;SDS011;25908;51.984;5.928;2022-12-20T07:12:31;5.50;;;2.90;;
39022;SDS011;25908;51.984;5.928;2022-12-20T07:14:57;5.40;;;2.55;;
39022;SDS011;25908;51.984;5.928;2022-12-20T07:17:23;4.25;;;1.95;;
39022;SDS011;25908;51.984;5.928;2022-12-20T07:19:49;4.20;;;2.10;;
39022;SDS011;25908;51.984;5.928;2022-12-20T07:22:15;5.75;;;2.28;;
39022;SDS011;25908;51.984;5.928;2022-12-20T07:24:40;3.83;;;2.30;;
39022;SDS011;25908;51.984;5.928;2022-12-20T07:27:06;4.97;;;2.60;;
39022;SDS011;25908;51.984;5.928;2022-12-20T07:29:34;5.28;;;2.17;;
39022;SDS011;25908;51.984;5.928;2022-12-20T07:32:00;7.10;;;2.30;;
39022;SDS011;25908;51.984;5.928;2022-12-20T07:34:26;5.13;;;2.03;;
39022;SDS011;25908;51.984;5.928;2022-12-20T07:36:52;5.70;;;2.28;;
39022;SDS011;25908;51.984;5.928;2022-12-20T07:39:18;3.75;;;2.10;;
39022;SDS011;25908;51.984;5.928;2022-12-20T07:41:44;5.20;;;2.75;;
39022;SDS011;25908;51.984;5.928;2022-12-20T07:44:10;5.15;;;2.10;;
39022;SDS011;25908;51.984;5.928;2022-12-20T07:46:35;5.75;;;2.20;;
39022;SDS011;25908;51.984;5.928;2022-12-20T07:49:01;4.65;;;1.90;;
39022;SDS011;25908;51.984;5.928;2022-12-20T07:51:28;6.05;;;1.88;;
39022;SDS011;25908;51.984;5.928;2022-12-20T07:54:19;4.32;;;2.00;;
39022;SDS011;25908;51.984;5.928;2022-12-20T07:56:46;5.28;;;2.42;;
39022;SDS011;25908;51.984;5.928;2022-12-20T07:59:16;4.33;;;1.80;;
39022;SDS011;25908;51.984;5.928;2022-12-20T08:01:45;3.42;;;1.70;;
39022;SDS011;25908;51.984;5.928;2022-12-20T08:04:17;5.03;;;1.90;;
39022;SDS011;25908;51.984;5.928;2022-12-20T08:06:45;4.20;;;1.80;;
39022;SDS011;25908;51.984;5.928;2022-12-20T08:09:12;5.97;;;1.80;;
39022;SDS011;25908;51.984;5.928;2022-12-20T08:11:38;4.72;;;2.00;;
39022;SDS011;25908;51.984;5.928;2022-12-20T08:14:07;5.30;;;2.42;;
39022;SDS011;25908;51.984;5.928;2022-12-20T08:16:33;7.65;;;2.50;;
39022;SDS011;25908;51.984;5.928;2022-12-20T08:18:59;5.72;;;2.25;;
39022;SDS011;25908;51.984;5.928;2022-12-20T08:21:25;5.30;;;1.85;;
39022;SDS011;25908;51.984;5.928;2022-12-20T08:23:50;5.57;;;2.30;;
39022;SDS011;25908;51.984;5.928;2022-12-20T08:26:16;3.30;;;2.00;;
39022;SDS011;25908;51.984;5.928;2022-12-20T08:28:42;3.75;;;1.92;;
39022;SDS011;25908;51.984;5.928;2022-12-20T08:31:08;4.38;;;1.83;;
39022;SDS011;25908;51.984;5.928;2022-12-20T08:33:36;4.65;;;1.83;;
39022;SDS011;25908;51.984;5.928;2022-12-20T08:36:04;4.15;;;2.00;;
39022;SDS011;25908;51.984;5.928;2022-12-20T08:38:32;4.47;;;2.10;;
39022;SDS011;25908;51.984;5.928;2022-12-20T08:41:03;6.65;;;2.10;;
39022;SDS011;25908;51.984;5.928;2022-12-20T08:43:34;4.35;;;2.00;;
39022;SDS011;25908;51.984;5.928;2022-12-20T08:46:00;5.13;;;2.15;;
39022;SDS011;25908;51.984;5.928;2022-12-20T08:48:26;5.32;;;2.38;;
39022;SDS011;25908;51.984;5.928;2022-12-20T08:50:56;5.80;;;2.08;;
39022;SDS011;25908;51.984;5.928;2022-12-20T08:53:23;5.57;;;2.13;;
39022;SDS011;25908;51.984;5.928;2022-12-20T08:55:49;4.50;;;1.90;;
39022;SDS011;25908;51.984;5.928;2022-12-20T08:58:15;4.88;;;2.20;;
39022;SDS011;25908;51.984;5.928;2022-12-20T09:00:41;6.32;;;2.10;;
39022;SDS011;25908;51.984;5.928;2022-12-20T09:03:06;5.18;;;2.05;;
39022;SDS011;25908;51.984;5.928;2022-12-20T09:05:33;2.55;;;1.80;;
39022;SDS011;25908;51.984;5.928;2022-12-20T09:07:59;5.15;;;2.05;;
39022;SDS011;25908;51.984;5.928;2022-12-20T09:10:25;5.47;;;2.08;;
39022;SDS011;25908;51.984;5.928;2022-12-20T09:12:50;5.10;;;2.25;;
39022;SDS011;25908;51.984;5.928;2022-12-20T09:15:16;6.85;;;2.10;;
39022;SDS011;25908;51.984;5.928;2022-12-20T09:17:42;5.82;;;2.17;;
39022;SDS011;25908;51.984;5.928;2022-12-20T09:20:07;4.60;;;2.10;;
39022;SDS011;25908;51.984;5.928;2022-12-20T09:22:33;4.35;;;2.15;;
39022;SDS011;25908;51.984;5.928;2022-12-20T09:24:59;6.40;;;2.60;;
39022;SDS011;25908;51.984;5.928;2022-12-20T09:27:24;8.18;;;2.35;;
39022;SDS011;25908;51.984;5.928;2022-12-20T09:29:50;5.88;;;2.63;;
39022;SDS011;25908;51.984;5.928;2022-12-20T09:32:16;6.55;;;2.60;;
39022;SDS011;25908;51.984;5.928;2022-12-20T09:34:41;5.60;;;2.20;;
39022;SDS011;25908;51.984;5.928;2022-12-20T09:37:07;6.30;;;2.42;;
39022;SDS011;25908;51.984;5.928;2022-12-20T09:39:32;4.70;;;2.00;;
39022;SDS011;25908;51.984;5.928;2022-12-20T09:41:58;7.07;;;2.28;;
39022;SDS011;25908;51.984;5.928;2022-12-20T09:44:26;5.13;;;2.38;;
39022;SDS011;25908;51.984;5.928;2022-12-20T09:47:20;7.80;;;2.13;;
39022;SDS011;25908;51.984;5.928;2022-12-20T09:49:47;6.88;;;2.25;;
39022;SDS011;25908;51.984;5.928;2022-12-20T09:55:08;3.90;;;1.90;;
39022;SDS011;25908;51.984;5.928;2022-12-20T09:57:57;4.30;;;1.95;;
39022;SDS011;25908;51.984;5.928;2022-12-20T10:00:46;5.53;;;2.22;;
39022;SDS011;25908;51.984;5.928;2022-12-20T10:03:14;7.07;;;2.53;;
39022;SDS011;25908;51.984;5.928;2022-12-20T10:05:55;8.07;;;3.05;;
39022;SDS011;25908;51.984;5.928;2022-12-20T10:10:56;6.38;;;2.70;;
39022;SDS011;25908;51.984;5.928;2022-12-20T10:16:35;5.40;;;2.20;;
39022;SDS011;25908;51.984;5.928;2022-12-20T10:24:30;5.78;;;2.38;;
39022;SDS011;25908;51.984;5.928;2022-12-20T10:27:15;6.35;;;2.70;;
39022;SDS011;25908;51.984;5.928;2022-12-20T10:29:42;6.00;;;2.58;;
39022;SDS011;25908;51.984;5.928;2022-12-20T10:32:21;5.50;;;2.30;;
39022;SDS011;25908;51.984;5.928;2022-12-20T10:34:51;9.18;;;2.30;;
39022;SDS011;25908;51.984;5.928;2022-12-20T10:37:20;6.97;;;2.40;;
39022;SDS011;25908;51.984;5.928;2022-12-20T10:39:47;4.68;;;2.38;;
39022;SDS011;25908;51.984;5.928;2022-12-20T10:42:47;7.13;;;2.97;;
39022;SDS011;25908;51.984;5.928;2022-12-20T10:47:43;9.18;;;3.65;;
39022;SDS011;25908;51.984;5.928;2022-12-20T10:50:15;9.60;;;3.45;;
39022;SDS011;25908;51.984;5.928;2022-12-20T10:52:42;5.32;;;3.00;;
39022;SDS011;25908;51.984;5.928;2022-12-20T10:58:33;5.13;;;2.60;;
39022;SDS011;25908;51.984;5.928;2022-12-20T11:01:12;5.95;;;2.75;;
39022;SDS011;25908;51.984;5.928;2022-12-20T11:06:21;7.65;;;3.45;;
39022;SDS011;25908;51.984;5.928;2022-12-20T11:08:50;5.03;;;2.95;;
39022;SDS011;25908;51.984;5.928;2022-12-20T11:11:17;9.10;;;3.70;;
39022;SDS011;25908;51.984;5.928;2022-12-20T11:13:47;6.63;;;3.00;;
39022;SDS011;25908;51.984;5.928;2022-12-20T11:16:25;6.20;;;2.85;;
39022;SDS011;25908;51.984;5.928;2022-12-20T11:24:13;17.13;;;4.95;;
39022;SDS011;25908;51.984;5.928;2022-12-20T11:27:00;6.75;;;3.15;;
39022;SDS011;25908;51.984;5.928;2022-12-20T11:35:29;11.88;;;4.55;;
39022;SDS011;25908;51.984;5.928;2022-12-20T11:40:39;6.22;;;2.70;;
39022;SDS011;25908;51.984;5.928;2022-12-20T11:56:39;5.47;;;3.25;;
39022;SDS011;25908;51.984;5.928;2022-12-20T11:59:25;14.05;;;4.55;;
39022;SDS011;25908;51.984;5.928;2022-12-20T12:02:07;15.02;;;4.28;;
39022;SDS011;25908;51.984;5.928;2022-12-20T12:04:45;8.23;;;2.97;;
39022;SDS011;25908;51.984;5.928;2022-12-20T12:07:22;10.13;;;3.08;;
39022;SDS011;25908;51.984;5.928;2022-12-20T12:09:56;11.52;;;3.53;;
39022;SDS011;25908;51.984;5.928;2022-12-20T12:12:43;9.70;;;4.10;;
39022;SDS011;25908;51.984;5.928;2022-12-20T12:15:32;12.57;;;4.03;;
39022;SDS011;25908;51.984;5.928;2022-12-20T12:18:14;9.07;;;3.72;;
39022;SDS011;25908;51.984;5.928;2022-12-20T12:26:09;8.27;;;3.75;;
39022;SDS011;25908;51.984;5.928;2022-12-20T12:28:39;10.20;;;3.63;;
39022;SDS011;25908;51.984;5.928;2022-12-20T12:31:10;10.23;;;3.97;;
39022;SDS011;25908;51.984;5.928;2022-12-20T12:33:46;6.25;;;3.40;;
39022;SDS011;25908;51.984;5.928;2022-12-20T12:47:18;5.75;;;3.20;;
39022;SDS011;25908;51.984;5.928;2022-12-20T12:50:07;8.30;;;3.53;;
39022;SDS011;25908;51.984;5.928;2022-12-20T12:52:44;11.48;;;3.78;;
39022;SDS011;25908;51.984;5.928;2022-12-20T13:01:01;5.78;;;3.40;;
39022;SDS011;25908;51.984;5.928;2022-12-20T13:03:43;9.63;;;3.78;;
39022;SDS011;25908;51.984;5.928;2022-12-20T13:11:32;7.82;;;3.45;;
39022;SDS011;25908;51.984;5.928;2022-12-20T13:16:52;8.05;;;3.63;;
39022;SDS011;25908;51.984;5.928;2022-12-20T13:19:30;13.18;;;4.03;;
39022;SDS011;25908;51.984;5.928;2022-12-20T13:40:22;9.25;;;4.20;;
39022;SDS011;25908;51.984;5.928;2022-12-20T13:42:56;5.95;;;3.85;;
39022;SDS011;25908;51.984;5.928;2022-12-20T13:45:26;8.13;;;4.68;;
39022;SDS011;25908;51.984;5.928;2022-12-20T13:47:56;6.38;;;4.18;;
39022;SDS011;25908;51.984;5.928;2022-12-20T13:50:29;8.23;;;4.20;;
39022;SDS011;25908;51.984;5.928;2022-12-20T13:53:03;7.78;;;4.00;;
39022;SDS011;25908;51.984;5.928;2022-12-20T13:55:37;5.90;;;4.18;;
39022;SDS011;25908;51.984;5.928;2022-12-20T14:00:44;9.43;;;5.65;;
39022;SDS011;25908;51.984;5.928;2022-12-20T14:03:17;11.35;;;6.05;;
39022;SDS011;25908;51.984;5.928;2022-12-20T14:05:45;10.88;;;5.47;;
39022;SDS011;25908;51.984;5.928;2022-12-20T14:08:17;8.52;;;5.72;;
39022;SDS011;25908;51.984;5.928;2022-12-20T14:10:46;6.88;;;5.05;;
39022;SDS011;25908;51.984;5.928;2022-12-20T14:13:16;10.02;;;5.40;;
39022;SDS011;25908;51.984;5.928;2022-12-20T14:15:48;8.43;;;5.40;;
39022;SDS011;25908;51.984;5.928;2022-12-20T14:18:15;6.05;;;4.05;;
39022;SDS011;25908;51.984;5.928;2022-12-20T14:20:44;7.55;;;4.40;;
39022;SDS011;25908;51.984;5.928;2022-12-20T14:23:21;9.55;;;5.53;;
39022;SDS011;25908;51.984;5.928;2022-12-20T14:28:38;8.27;;;6.53;;
39022;SDS011;25908;51.984;5.928;2022-12-20T14:31:04;7.78;;;4.65;;
39022;SDS011;25908;51.984;5.928;2022-12-20T14:33:36;6.40;;;4.63;;
39022;SDS011;25908;51.984;5.928;2022-12-20T14:38:46;9.23;;;5.30;;
39022;SDS011;25908;51.984;5.928;2022-12-20T14:46:31;7.40;;;4.80;;
39022;SDS011;25908;51.984;5.928;2022-12-20T14:49:15;8.57;;;4.90;;
39022;SDS011;25908;51.984;5.928;2022-12-20T14:51:46;10.32;;;5.47;;
39022;SDS011;25908;51.984;5.928;2022-12-20T14:54:22;7.68;;;4.68;;
39022;SDS011;25908;51.984;5.928;2022-12-20T14:56:52;9.32;;;6.68;;
39022;SDS011;25908;51.984;5.928;2022-12-20T14:59:22;8.02;;;6.40;;
39022;SDS011;25908;51.984;5.928;2022-12-20T15:01:51;10.68;;;5.93;;
39022;SDS011;25908;51.984;5.928;2022-12-20T15:06:56;8.63;;;5.40;;
39022;SDS011;25908;51.984;5.928;2022-12-20T15:09:23;7.82;;;6.43;;
39022;SDS011;25908;51.984;5.928;2022-12-20T15:11:48;8.45;;;5.50;;
39022;SDS011;25908;51.984;5.928;2022-12-20T15:14:20;7.95;;;5.40;;
39022;SDS011;25908;51.984;5.928;2022-12-20T15:16:57;8.80;;;5.78;;
39022;SDS011;25908;51.984;5.928;2022-12-20T15:19:23;7.82;;;4.60;;
39022;SDS011;25908;51.984;5.928;2022-12-20T15:21:49;7.30;;;4.35;;
39022;SDS011;25908;51.984;5.928;2022-12-20T15:24:16;5.80;;;4.20;;
39022;SDS011;25908;51.984;5.928;2022-12-20T15:26:45;7.20;;;4.47;;
39022;SDS011;25908;51.984;5.928;2022-12-20T15:29:18;9.70;;;4.00;;
39022;SDS011;25908;51.984;5.928;2022-12-20T15:31:58;5.28;;;3.97;;
39022;SDS011;25908;51.984;5.928;2022-12-20T15:34:35;6.45;;;4.80;;
39022;SDS011;25908;51.984;5.928;2022-12-20T15:37:02;6.55;;;4.22;;
39022;SDS011;25908;51.984;5.928;2022-12-20T15:39:29;6.63;;;4.15;;
39022;SDS011;25908;51.984;5.928;2022-12-20T15:41:55;5.45;;;3.88;;
39022;SDS011;25908;51.984;5.928;2022-12-20T15:44:24;7.13;;;4.40;;
39022;SDS011;25908;51.984;5.928;2022-12-20T15:46:53;5.13;;;3.65;;
39022;SDS011;25908;51.984;5.928;2022-12-20T15:49:20;5.00;;;3.60;;
39022;SDS011;25908;51.984;5.928;2022-12-20T15:57:00;6.90;;;4.63;;
39022;SDS011;25908;51.984;5.928;2022-12-20T15:59:33;6.30;;;4.10;;
39022;SDS011;25908;51.984;5.928;2022-12-20T16:01:59;6.32;;;4.25;;
39022;SDS011;25908;51.984;5.928;2022-12-20T16:04:25;10.93;;;6.40;;
39022;SDS011;25908;51.984;5.928;2022-12-20T16:06:52;7.40;;;5.18;;
39022;SDS011;25908;51.984;5.928;2022-12-20T16:09:18;10.30;;;6.15;;
39022;SDS011;25908;51.984;5.928;2022-12-20T16:11:45;8.48;;;6.38;;
39022;SDS011;25908;51.984;5.928;2022-12-20T16:14:14;8.43;;;6.65;;
39022;SDS011;25908;51.984;5.928;2022-12-20T16:16:41;7.10;;;5.68;;
39022;SDS011;25908;51.984;5.928;2022-12-20T16:19:08;9.38;;;6.43;;
39022;SDS011;25908;51.984;5.928;2022-12-20T16:21:35;8.90;;;6.43;;
39022;SDS011;25908;51.984;5.928;2022-12-20T16:24:10;14.27;;;11.48;;
39022;SDS011;25908;51.984;5.928;2022-12-20T16:26:38;7.88;;;6.38;;
39022;SDS011;25908;51.984;5.928;2022-12-20T16:29:04;11.57;;;8.05;;
39022;SDS011;25908;51.984;5.928;2022-12-20T16:31:30;11.48;;;8.50;;
39022;SDS011;25908;51.984;5.928;2022-12-20T16:33:59;11.02;;;8.63;;
39022;SDS011;25908;51.984;5.928;2022-12-20T16:36:27;9.38;;;7.40;;
39022;SDS011;25908;51.984;5.928;2022-12-20T16:38:53;9.90;;;7.63;;
39022;SDS011;25908;51.984;5.928;2022-12-20T16:43:46;10.90;;;7.28;;
39022;SDS011;25908;51.984;5.928;2022-12-20T16:46:13;13.45;;;10.23;;
39022;SDS011;25908;51.984;5.928;2022-12-20T16:48:41;8.00;;;6.90;;
39022;SDS011;25908;51.984;5.928;2022-12-20T16:53:58;17.13;;;13.32;;
39022;SDS011;25908;51.984;5.928;2022-12-20T16:56:26;15.75;;;14.05;;
39022;SDS011;25908;51.984;5.928;2022-12-20T16:58:54;16.83;;;15.02;;
39022;SDS011;25908;51.984;5.928;2022-12-20T17:01:32;14.88;;;13.35;;
39022;SDS011;25908;51.984;5.928;2022-12-20T17:04:00;27.60;;;24.80;;
39022;SDS011;25908;51.984;5.928;2022-12-20T17:06:25;22.38;;;20.25;;
39022;SDS011;25908;51.984;5.928;2022-12-20T17:08:51;21.52;;;13.20;;
39022;SDS011;25908;51.984;5.928;2022-12-20T17:13:45;9.75;;;8.73;;
39022;SDS011;25908;51.984;5.928;2022-12-20T17:16:13;9.93;;;8.68;;
39022;SDS011;25908;51.984;5.928;2022-12-20T17:18:43;10.05;;;8.52;;
39022;SDS011;25908;51.984;5.928;2022-12-20T17:21:20;11.80;;;10.60;;